This is the latest recevied weather packets stored in our database for station/object GW1545. If no packets are shown the sender has not sent any weather packets the latest 10 day(s).
| Time | Temp. | Humidity | Pressure | Rain* | Wind** | Luminosity | Snow |
|---|---|---|---|---|---|---|---|
| 1777751654 | 12.78° C | 48% | 1018.6 hPa | 0 mm | - | - | - |
| 1777750969 | 13.33° C | 46% | 1018.6 hPa | 0 mm | - | - | - |
| 1777746280 | 12.22° C | 48% | 1019.3 hPa | 0 mm | - | - | - |
| 1777745574 | 12.22° C | 47% | 1019.3 hPa | 0 mm | - | - | - |
| 1777737984 | 11.67° C | 57% | 1019.9 hPa | 0 mm | - | - | - |
| 1777735839 | 11.67° C | 58% | 1019.9 hPa | 0 mm | - | - | - |
| 1777735453 | 12.22° C | 57% | 1019.9 hPa | 0 mm | - | - | - |
| 1777734042 | 12.22° C | 60% | 1020.3 hPa | 0 mm | - | - | - |
| 1777732610 | 10° C | 66% | 1019.9 hPa | 0 mm | - | - | - |
| 1777727567 | 9.44° C | 75% | 1019.9 hPa | 0 mm | - | - | - |
| 1777726834 | 10° C | 76% | 1019.9 hPa | 0 mm | - | - | - |
| 1777723604 | 5.56° C | 95% | 1019.6 hPa | 0 mm | - | - | - |
| 1777722891 | 3.89° C | 96% | 1019.9 hPa | 0 mm | - | - | - |
| 1777722152 | 3.33° C | 96% | 1019.6 hPa | 0 mm | - | - | - |
| 1777717127 | 2.22° C | 95% | 1019.3 hPa | 0 mm | - | - | - |
| 1777716391 | 2.22° C | 95% | 1019.3 hPa | 0 mm | - | - | - |
| 1777705944 | 3.89° C | 87% | 1019.3 hPa | 0 mm | - | - | - |
| 1777701647 | 5.56° C | 84% | 1019.9 hPa | 0 mm | - | - | - |
| 1777701288 | 5° C | 87% | 1019.9 hPa | 0 mm | - | - | - |
| 1777699821 | 5° C | 88% | 1019.9 hPa | 0 mm | - | - | - |
| 1777698388 | 5.56° C | 85% | 1019.9 hPa | 0 mm | - | - | - |
| 1777695875 | 5.56° C | 82% | 1020.6 hPa | 0 mm | - | - | - |
| 1777691175 | 7.78° C | 75% | 1020.3 hPa | 0 mm | - | - | - |
| 1777681112 | 11.67° C | 65% | 1017.2 hPa | 0 mm | - | - | - |
| 1777680766 | 12.22° C | 63% | 1017.2 hPa | 0 mm | - | - | - |
* Rain since midnight (hover to see other rain measurements)
** Current wind speed in m/s (hover to see current wind gust speed)